LIPH

Treviso-Sant'Angelo Airport

Airport
ICAO code
LIPH
IATA Code
TSF
Summary
ICAO Region
EUR
ICAO Territory
Location

Treviso, Veneto

Serving
Treviso
Elevation
59 ft
Coordinates
45° 38' 54" N , 12° 11' 40" E
Metar
Observation
LIPH 032020Z VRB02KT 3000 BR NSC 03/03 Q1021
Station
Treviso / S. Angelo
Date/Time
2023-02-03 20:20:00
Wind speed
02 kts
Lowest cloud amount
nil significant cloud
Temperature
3°C
Dew point
3°C
Humidity
100%
QNH
1021 hPa
Weather condition
n/a

Runways

Designator Length Width Surface Rops
7/25 2420 44 ASP Yes/Yes

Airport map

Aerial View

SKYbrary Partners:

Safety knowledge contributed by: